createdAt,value
2022-11-21T00:00:55.185Z,0.20
2022-11-21T00:03:45.636Z,0.20
2022-11-21T00:06:34.147Z,0.10
2022-11-21T00:09:22.689Z,0.10
2022-11-21T00:12:11.196Z,0.10
2022-11-21T00:14:59.975Z,0.10
2022-11-21T00:17:48.487Z,0.10
2022-11-21T00:20:38.955Z,0.10
2022-11-21T00:23:29.241Z,0.20
2022-11-21T00:26:18.323Z,0.20
2022-11-21T00:29:07.312Z,0.20
2022-11-21T00:31:55.833Z,0.20
2022-11-21T00:34:44.457Z,0.20
2022-11-21T00:37:35.329Z,0.20
2022-11-21T00:40:23.890Z,0.20
2022-11-21T00:43:13.073Z,0.20
2022-11-21T00:46:03.059Z,0.20
2022-11-21T00:48:52.367Z,0.30
2022-11-21T00:51:40.946Z,0.20
2022-11-21T00:54:31.077Z,0.20
2022-11-21T00:57:19.568Z,0.10
2022-11-21T01:00:09.415Z,0.10
2022-11-21T01:02:58.087Z,0.20
2022-11-21T01:05:47.004Z,0.30
2022-11-21T01:08:36.931Z,0.60
2022-11-21T01:11:26.914Z,0.50
2022-11-21T01:14:15.431Z,0.50
2022-11-21T01:17:03.963Z,0.40
2022-11-21T01:19:52.535Z,0.30
2022-11-21T01:22:41.020Z,0.40
2022-11-21T01:25:29.508Z,0.40
2022-11-21T01:28:19.316Z,0.40
2022-11-21T01:31:09.189Z,0.30
2022-11-21T01:33:58.972Z,0.30
2022-11-21T01:36:47.528Z,0.20
2022-11-21T01:39:36.232Z,0.20
2022-11-21T01:42:24.674Z,0.10
2022-11-21T01:45:46.540Z,0.20
2022-11-21T01:48:45.307Z,0.10
2022-11-21T01:51:38.202Z,0.00
2022-11-21T01:54:30.815Z,0.10
2022-11-21T01:57:23.185Z,0.00
2022-11-21T02:00:14.298Z,-0.10
2022-11-21T02:03:08.016Z,0.10
2022-11-21T02:05:58.411Z,0.10
2022-11-21T02:08:47.218Z,0.10
2022-11-21T02:11:39.768Z,0.20
2022-11-21T02:14:29.997Z,0.30
2022-11-21T02:17:20.085Z,0.20
2022-11-21T02:20:10.351Z,0.10
2022-11-21T02:23:06.919Z,0.20
2022-11-21T02:25:57.091Z,0.20
2022-11-21T02:28:46.227Z,0.00
2022-11-21T02:31:34.743Z,0.00
2022-11-21T02:34:23.219Z,0.00
2022-11-21T02:37:11.881Z,0.10
2022-11-21T02:40:04.998Z,0.00
2022-11-21T02:43:00.416Z,0.10
2022-11-21T02:45:49.447Z,-0.10
2022-11-21T02:48:38.651Z,0.00
2022-11-21T02:51:27.224Z,-0.10
2022-11-21T02:54:15.685Z,-0.10
2022-11-21T02:57:04.728Z,0.10
2022-11-21T02:59:55.281Z,0.10
2022-11-21T03:02:44.187Z,0.20
2022-11-21T03:05:32.733Z,0.00
2022-11-21T03:08:21.196Z,-0.10
2022-11-21T03:11:09.673Z,-0.20
2022-11-21T03:13:58.214Z,-0.20
2022-11-21T03:16:48.067Z,-0.20
2022-11-21T03:19:36.811Z,-0.30
2022-11-21T03:22:25.374Z,-0.30
2022-11-21T03:25:14.131Z,-0.30
2022-11-21T03:28:02.711Z,-0.30
2022-11-21T03:30:51.647Z,-0.40
2022-11-21T03:33:41.481Z,-0.40
2022-11-21T03:36:30.126Z,-0.40
2022-11-21T03:39:18.675Z,-0.40
2022-11-21T03:42:07.309Z,-0.40
2022-11-21T03:44:55.793Z,-0.30
2022-11-21T03:47:47.859Z,-0.30
2022-11-21T03:50:38.152Z,-0.30
2022-11-21T03:53:26.655Z,-0.20
2022-11-21T03:56:15.505Z,-0.30
2022-11-21T03:59:04.542Z,-0.30
2022-11-21T04:01:53.238Z,-0.20
2022-11-21T04:04:42.496Z,-0.20
2022-11-21T04:07:32.536Z,-0.10
2022-11-21T04:10:22.018Z,-0.10
2022-11-21T04:13:10.515Z,-0.20
2022-11-21T04:15:59.116Z,-0.30
2022-11-21T04:18:47.594Z,-0.30
2022-11-21T04:21:36.114Z,-0.30
2022-11-21T04:24:26.187Z,-0.30
2022-11-21T04:27:15.000Z,-0.20
2022-11-21T04:30:03.642Z,-0.10
2022-11-21T04:32:52.370Z,0.00
2022-11-21T04:35:40.943Z,-0.20
2022-11-21T04:38:29.636Z,-0.10
2022-11-21T04:41:19.529Z,-0.30
2022-11-21T04:44:08.169Z,-0.20
2022-11-21T04:46:58.988Z,-0.10
2022-11-21T04:49:50.906Z,-0.20
2022-11-21T04:52:39.495Z,-0.40
2022-11-21T04:55:30.969Z,-0.50
2022-11-21T04:58:20.806Z,-0.70
2022-11-21T05:01:10.359Z,-0.70
2022-11-21T05:03:58.905Z,-0.70
2022-11-21T05:06:47.685Z,-0.70
2022-11-21T05:09:36.217Z,-0.70
2022-11-21T05:12:43.463Z,-0.70
2022-11-21T05:15:33.378Z,-0.90
2022-11-21T05:18:21.864Z,-0.80
2022-11-21T05:21:10.329Z,-0.70
2022-11-21T05:23:58.769Z,-0.60
2022-11-21T05:26:47.271Z,-0.60
2022-11-21T05:29:36.127Z,-0.50
2022-11-21T05:32:26.083Z,-0.80
2022-11-21T05:35:14.715Z,-0.50
2022-11-21T05:38:03.953Z,-0.70
2022-11-21T05:40:53.271Z,-0.80
2022-11-21T05:43:47.702Z,-1.00
2022-11-21T05:46:36.973Z,-0.90
2022-11-21T05:49:26.904Z,-0.90
2022-11-21T05:52:15.456Z,-0.80
2022-11-21T05:55:04.287Z,-0.70
2022-11-21T05:57:53.113Z,-0.60
2022-11-21T06:00:41.752Z,-0.90
2022-11-21T06:03:32.686Z,-0.90
2022-11-21T06:06:25.009Z,-0.90
2022-11-21T06:09:13.831Z,-1.10
2022-11-21T06:12:02.274Z,-0.90
2022-11-21T06:14:50.870Z,-0.70
2022-11-21T06:17:39.660Z,-0.90
2022-11-21T06:20:28.267Z,-0.90
2022-11-21T06:23:18.258Z,-0.80
2022-11-21T06:26:10.095Z,-1.00
2022-11-21T06:28:58.658Z,-1.00
2022-11-21T06:31:47.138Z,-1.00
2022-11-21T06:34:35.598Z,-1.00
2022-11-21T06:37:24.118Z,-0.90
2022-11-21T06:40:14.532Z,-1.20
2022-11-21T06:43:03.298Z,-1.20
2022-11-21T06:45:52.074Z,-1.20
2022-11-21T06:48:41.067Z,-1.30
2022-11-21T06:51:29.611Z,-1.10
2022-11-21T06:54:18.219Z,-0.90
2022-11-21T06:57:08.149Z,-0.90
2022-11-21T06:59:56.666Z,-0.80
2022-11-21T07:02:45.249Z,-0.80
2022-11-21T07:05:34.968Z,-0.60
2022-11-21T07:08:23.427Z,-0.40
2022-11-21T07:11:28.529Z,-0.50
2022-11-21T07:14:19.150Z,-0.50
2022-11-21T07:17:07.654Z,-0.30
2022-11-21T07:19:56.158Z,-0.50
2022-11-21T07:22:44.835Z,-0.50
2022-11-21T07:25:36.619Z,-0.40
2022-11-21T07:28:25.653Z,-0.50
2022-11-21T07:31:15.744Z,-0.30
2022-11-21T07:34:04.197Z,-0.30
2022-11-21T07:36:52.878Z,-0.30
2022-11-21T07:39:41.384Z,-0.20
2022-11-21T07:42:29.936Z,-0.30
2022-11-21T07:45:18.736Z,-0.30
2022-11-21T07:48:09.379Z,-0.30
2022-11-21T07:50:57.890Z,-0.20
2022-11-21T07:53:46.428Z,-0.10
2022-11-21T07:56:34.929Z,0.00
2022-11-21T07:59:23.416Z,-0.10
2022-11-21T08:02:20.365Z,0.00
2022-11-21T08:05:10.731Z,0.00
2022-11-21T08:08:00.105Z,0.00
2022-11-21T08:10:49.018Z,0.10
2022-11-21T08:13:37.572Z,0.20
2022-11-21T08:16:28.344Z,0.30
2022-11-21T08:19:16.796Z,0.20
2022-11-21T08:22:06.799Z,0.10
2022-11-21T08:24:55.321Z,0.10
2022-11-21T08:27:44.091Z,0.20
2022-11-21T08:30:33.222Z,0.20
2022-11-21T08:33:24.236Z,0.30
2022-11-21T08:36:12.815Z,0.40
2022-11-21T08:39:03.054Z,0.50
2022-11-21T08:42:06.619Z,0.50
2022-11-21T08:44:55.572Z,0.40
2022-11-21T08:47:44.393Z,0.30
2022-11-21T08:50:33.053Z,0.10
2022-11-21T08:53:22.011Z,0.20
2022-11-21T08:56:11.884Z,0.30
2022-11-21T08:59:00.578Z,0.50
2022-11-21T09:01:49.127Z,0.70
2022-11-21T09:04:37.993Z,0.80
2022-11-21T09:07:26.627Z,0.70
2022-11-21T09:10:15.803Z,0.80
2022-11-21T09:13:05.965Z,0.90
2022-11-21T09:16:14.246Z,1.00
2022-11-21T09:19:06.652Z,1.10
2022-11-21T09:21:55.340Z,1.10
2022-11-21T09:24:43.973Z,0.90
2022-11-21T09:27:32.875Z,1.00
2022-11-21T09:30:23.401Z,1.10
2022-11-21T09:33:13.911Z,1.40
2022-11-21T09:36:02.894Z,1.50
2022-11-21T09:39:03.372Z,1.60
2022-11-21T09:42:04.609Z,1.50
2022-11-21T09:45:10.096Z,1.60
2022-11-21T09:48:00.248Z,1.60
2022-11-21T09:50:53.943Z,1.60
2022-11-21T09:53:56.141Z,1.50
2022-11-21T09:56:45.553Z,1.50
2022-11-21T09:59:37.590Z,1.60
2022-11-21T10:02:27.130Z,1.30
2022-11-21T10:05:17.876Z,1.30
2022-11-21T10:08:16.508Z,1.30
2022-11-21T10:11:20.294Z,1.50
2022-11-21T10:14:21.134Z,1.40
2022-11-21T10:17:19.761Z,1.50
2022-11-21T10:20:28.923Z,1.60
2022-11-21T10:23:47.695Z,1.60
2022-11-21T10:26:47.359Z,1.60
2022-11-21T10:29:39.672Z,1.60
2022-11-21T10:32:32.190Z,1.70
2022-11-21T10:35:25.218Z,1.70
2022-11-21T10:38:21.754Z,1.90
2022-11-21T10:41:17.894Z,1.90
2022-11-21T10:44:33.271Z,2.00
2022-11-21T10:47:28.544Z,2.20
2022-11-21T10:50:41.298Z,2.20
2022-11-21T10:53:51.003Z,2.20
2022-11-21T10:56:39.761Z,2.20
2022-11-21T10:59:31.341Z,2.20
2022-11-21T11:02:25.629Z,2.30
2022-11-21T11:05:22.202Z,2.30
2022-11-21T11:08:13.430Z,2.30
2022-11-21T11:11:05.467Z,2.30
2022-11-21T11:13:58.440Z,2.50
2022-11-21T11:16:48.156Z,2.60
2022-11-21T11:19:40.316Z,2.70
2022-11-21T11:22:30.181Z,2.50
2022-11-21T11:25:20.131Z,2.70
2022-11-21T11:28:09.606Z,2.70
2022-11-21T11:30:59.067Z,2.90
2022-11-21T11:33:58.031Z,3.00
2022-11-21T11:37:12.137Z,3.20
2022-11-21T11:40:09.199Z,3.20
2022-11-21T11:43:57.564Z,3.40
2022-11-21T11:47:12.218Z,3.40
2022-11-21T11:50:13.743Z,3.40
2022-11-21T11:53:08.830Z,3.30
2022-11-21T11:56:00.767Z,3.30
2022-11-21T11:58:55.323Z,3.50
2022-11-21T12:01:49.643Z,3.50
2022-11-21T12:04:47.136Z,3.50
2022-11-21T12:08:38.788Z,3.60
2022-11-21T12:11:21.095Z,3.70
2022-11-21T12:14:38.672Z,3.80
2022-11-21T12:17:33.729Z,3.80
2022-11-21T12:20:26.217Z,3.90
2022-11-21T12:23:15.421Z,3.90
2022-11-21T12:26:22.610Z,4.00
2022-11-21T12:29:23.851Z,4.00
2022-11-21T12:32:26.899Z,3.90
2022-11-21T12:35:37.506Z,3.80
2022-11-21T12:38:44.692Z,3.80
2022-11-21T12:41:57.021Z,3.80
2022-11-21T12:45:00.736Z,3.80
2022-11-21T12:48:25.280Z,3.70
2022-11-21T12:52:13.833Z,3.70
2022-11-21T12:55:15.808Z,3.70
2022-11-21T12:58:13.880Z,3.70
2022-11-21T13:01:21.402Z,3.50
2022-11-21T13:04:15.444Z,3.60
2022-11-21T13:07:05.467Z,3.50
2022-11-21T13:10:14.271Z,3.50
2022-11-21T13:13:14.854Z,3.60
2022-11-21T13:16:11.636Z,3.60
2022-11-21T13:19:01.520Z,3.60
2022-11-21T13:21:52.584Z,3.60
2022-11-21T13:24:59.133Z,3.70
2022-11-21T13:27:47.819Z,3.70
2022-11-21T13:30:36.448Z,3.70
2022-11-21T13:33:49.479Z,3.70
2022-11-21T13:36:42.617Z,3.80
2022-11-21T13:39:32.638Z,3.80
2022-11-21T13:42:39.175Z,3.60
2022-11-21T13:45:43.807Z,3.60
2022-11-21T13:49:08.876Z,3.60
2022-11-21T13:51:58.012Z,3.70
2022-11-21T13:55:31.567Z,3.60
2022-11-21T13:58:35.322Z,3.60
2022-11-21T14:01:46.304Z,3.60
2022-11-21T14:04:58.443Z,3.70
2022-11-21T14:07:47.939Z,3.50
2022-11-21T14:10:36.997Z,3.40
2022-11-21T14:13:30.377Z,3.50
2022-11-21T14:16:29.543Z,3.50
2022-11-21T14:19:21.208Z,3.50
2022-11-21T14:22:17.338Z,3.80
2022-11-21T14:25:10.773Z,3.60
2022-11-21T14:27:59.925Z,3.50
2022-11-21T14:30:48.874Z,3.50
2022-11-21T14:33:38.595Z,3.60
2022-11-21T14:36:29.485Z,3.50
2022-11-21T14:39:36.616Z,3.50
2022-11-21T14:42:36.437Z,3.50
2022-11-21T14:45:25.402Z,3.50
2022-11-21T14:48:14.395Z,3.40
2022-11-21T14:51:03.080Z,3.10
2022-11-21T14:53:53.959Z,3.00
2022-11-21T14:56:44.014Z,3.10
2022-11-21T14:59:35.250Z,2.90
2022-11-21T15:02:25.801Z,2.80
2022-11-21T15:05:34.166Z,2.90
2022-11-21T15:11:38.803Z,3.10
2022-11-21T15:14:33.901Z,3.00
2022-11-21T15:17:25.232Z,2.90
2022-11-21T15:20:21.924Z,2.80
2022-11-21T15:23:28.751Z,2.90
2022-11-21T15:26:35.553Z,3.00
2022-11-21T15:29:24.625Z,2.90
2022-11-21T15:32:16.728Z,2.80
2022-11-21T15:35:32.138Z,2.70
2022-11-21T15:38:28.264Z,2.80
2022-11-21T15:41:33.404Z,2.70
2022-11-21T15:44:23.970Z,2.90
2022-11-21T15:47:13.911Z,2.80
2022-11-21T15:50:02.540Z,2.90
2022-11-21T15:52:53.422Z,2.80
2022-11-21T15:55:41.935Z,2.90
2022-11-21T15:58:30.671Z,2.90
2022-11-21T16:01:21.303Z,2.80
2022-11-21T16:04:13.351Z,2.90
2022-11-21T16:07:02.014Z,2.90
2022-11-21T16:09:50.566Z,2.70
2022-11-21T16:12:39.583Z,2.80
2022-11-21T16:15:28.273Z,2.90
2022-11-21T16:18:17.074Z,2.90
2022-11-21T16:21:09.274Z,3.00
2022-11-21T16:23:57.958Z,3.00
2022-11-21T16:26:47.096Z,3.00
2022-11-21T16:29:36.182Z,3.00
2022-11-21T16:32:27.001Z,3.00
2022-11-21T16:35:15.589Z,2.90
2022-11-21T16:38:08.441Z,2.80
2022-11-21T16:40:59.048Z,2.80
2022-11-21T16:43:50.064Z,2.80
2022-11-21T16:46:43.579Z,2.70
2022-11-21T16:49:32.515Z,2.80
2022-11-21T16:52:21.033Z,2.80
2022-11-21T16:55:11.421Z,2.80
2022-11-21T16:57:59.991Z,2.80
2022-11-21T17:00:48.725Z,2.60
2022-11-21T17:03:37.659Z,2.80
2022-11-21T17:06:29.603Z,2.80
2022-11-21T17:09:18.729Z,2.80
2022-11-21T17:12:09.118Z,2.70
2022-11-21T17:14:57.570Z,2.80
2022-11-21T17:17:46.032Z,2.90
2022-11-21T17:20:34.833Z,2.90
2022-11-21T17:23:23.357Z,2.90
2022-11-21T20:18:40.544Z,3.30
2022-11-21T20:21:29.026Z,3.30
2022-11-21T20:24:17.867Z,3.40
2022-11-21T20:27:06.413Z,3.40
2022-11-21T20:29:54.935Z,3.30
2022-11-21T20:32:43.583Z,3.40
2022-11-21T20:35:35.390Z,3.50
2022-11-21T20:38:24.650Z,3.60
2022-11-21T20:41:13.246Z,3.50
2022-11-21T20:44:44.659Z,3.40
2022-11-21T20:47:12.424Z,3.50
2022-11-21T20:50:01.142Z,3.50
2022-11-21T20:56:02.772Z,3.20
2022-11-21T20:58:51.873Z,3.30
2022-11-21T21:01:40.948Z,3.30
2022-11-21T21:04:29.646Z,3.30
2022-11-21T21:07:18.355Z,3.30
2022-11-21T21:10:10.284Z,3.30
2022-11-21T21:12:59.060Z,3.40
2022-11-21T21:15:47.932Z,3.30
2022-11-21T21:18:37.650Z,3.40
2022-11-21T21:21:28.529Z,3.30
2022-11-21T21:24:17.435Z,3.40
2022-11-21T21:27:07.876Z,3.40
2022-11-21T21:29:56.437Z,3.40
2022-11-21T21:32:45.176Z,3.40
2022-11-21T21:35:33.734Z,3.40
2022-11-21T21:38:22.299Z,3.30
2022-11-21T21:41:12.793Z,3.30
2022-11-21T21:44:03.164Z,3.30
2022-11-21T21:46:52.089Z,3.30
2022-11-21T21:49:40.582Z,3.30
2022-11-21T21:52:29.274Z,3.40
2022-11-21T21:55:18.040Z,3.40
2022-11-21T21:58:06.635Z,3.40
2022-11-21T22:01:03.280Z,3.40
2022-11-21T22:03:54.833Z,3.40
2022-11-21T22:06:43.885Z,3.50
2022-11-21T22:09:32.754Z,3.40
2022-11-21T22:12:21.427Z,3.40
2022-11-21T22:15:10.283Z,3.30
2022-11-21T22:18:00.416Z,3.30
2022-11-21T22:20:49.065Z,3.30
2022-11-21T22:23:51.028Z,3.50
2022-11-21T22:26:47.115Z,3.50
2022-11-21T22:29:35.612Z,3.50
2022-11-21T22:32:24.209Z,3.50
2022-11-21T22:35:14.157Z,3.50
2022-11-21T22:38:02.802Z,3.50
2022-11-21T22:40:51.287Z,3.50
2022-11-21T22:43:39.904Z,3.50
2022-11-21T22:46:30.101Z,3.50
2022-11-21T22:49:18.962Z,3.50
2022-11-21T22:52:09.448Z,3.30
2022-11-21T22:54:58.131Z,3.40
2022-11-21T22:57:47.066Z,3.40
2022-11-21T23:00:35.632Z,3.40
2022-11-21T23:03:24.321Z,3.40
2022-11-21T23:06:14.474Z,3.30
2022-11-21T23:09:04.493Z,3.40
2022-11-21T23:11:52.985Z,3.60
2022-11-21T23:14:41.860Z,3.50
2022-11-21T23:17:30.341Z,3.60
2022-11-21T23:20:19.187Z,3.60
2022-11-21T23:23:07.933Z,3.60
2022-11-21T23:25:57.905Z,3.50
2022-11-21T23:28:46.486Z,3.60
2022-11-21T23:31:35.093Z,3.60
2022-11-21T23:34:23.643Z,3.60
2022-11-21T23:37:12.203Z,3.60
2022-11-21T23:40:00.805Z,3.70
2022-11-21T23:42:50.861Z,3.70
2022-11-21T23:45:39.376Z,3.80
2022-11-21T23:48:28.453Z,3.70
2022-11-21T23:51:16.919Z,3.80
2022-11-21T23:54:05.549Z,3.80
2022-11-21T23:56:54.062Z,3.70
2022-11-21T23:59:44.115Z,3.70
